sensor_id;sensor_type;location;lat;lon;timestamp;P1;durP1;ratioP1;P2;durP2;ratioP2
24631;SDS011;59977;48.782;9.190;2023-02-11T00:01:36;58.40;;;26.25;;
24631;SDS011;59977;48.782;9.190;2023-02-11T00:04:03;59.83;;;27.52;;
24631;SDS011;59977;48.782;9.190;2023-02-11T00:06:29;54.97;;;26.77;;
24631;SDS011;59977;48.782;9.190;2023-02-11T00:08:56;60.63;;;27.13;;
24631;SDS011;59977;48.782;9.190;2023-02-11T00:11:23;61.72;;;27.52;;
24631;SDS011;59977;48.782;9.190;2023-02-11T00:13:50;59.05;;;26.23;;
24631;SDS011;59977;48.782;9.190;2023-02-11T00:16:17;54.53;;;27.05;;
24631;SDS011;59977;48.782;9.190;2023-02-11T00:18:45;60.47;;;26.13;;
24631;SDS011;59977;48.782;9.190;2023-02-11T00:21:12;51.85;;;26.08;;
24631;SDS011;59977;48.782;9.190;2023-02-11T00:23:43;59.17;;;26.83;;
24631;SDS011;59977;48.782;9.190;2023-02-11T00:28:44;57.22;;;27.25;;
24631;SDS011;59977;48.782;9.190;2023-02-11T00:31:11;58.42;;;26.92;;
24631;SDS011;59977;48.782;9.190;2023-02-11T00:33:37;53.78;;;27.60;;
24631;SDS011;59977;48.782;9.190;2023-02-11T00:36:07;54.55;;;25.83;;
24631;SDS011;59977;48.782;9.190;2023-02-11T00:38:39;56.67;;;25.73;;
24631;SDS011;59977;48.782;9.190;2023-02-11T00:41:08;55.50;;;26.08;;
24631;SDS011;59977;48.782;9.190;2023-02-11T00:43:34;55.92;;;26.80;;
24631;SDS011;59977;48.782;9.190;2023-02-11T00:46:00;51.92;;;25.33;;
24631;SDS011;59977;48.782;9.190;2023-02-11T00:48:25;50.53;;;24.70;;
24631;SDS011;59977;48.782;9.190;2023-02-11T00:50:51;49.88;;;24.67;;
24631;SDS011;59977;48.782;9.190;2023-02-11T00:53:16;51.03;;;25.75;;
24631;SDS011;59977;48.782;9.190;2023-02-11T00:55:42;57.65;;;26.60;;
24631;SDS011;59977;48.782;9.190;2023-02-11T00:58:08;60.20;;;25.85;;
24631;SDS011;59977;48.782;9.190;2023-02-11T01:00:33;57.13;;;25.92;;
24631;SDS011;59977;48.782;9.190;2023-02-11T01:02:59;58.60;;;25.33;;
24631;SDS011;59977;48.782;9.190;2023-02-11T01:05:24;61.78;;;26.73;;
24631;SDS011;59977;48.782;9.190;2023-02-11T01:07:50;60.97;;;26.33;;
24631;SDS011;59977;48.782;9.190;2023-02-11T01:10:16;53.63;;;26.52;;
24631;SDS011;59977;48.782;9.190;2023-02-11T01:12:42;53.97;;;26.30;;
24631;SDS011;59977;48.782;9.190;2023-02-11T01:15:08;56.88;;;27.33;;
24631;SDS011;59977;48.782;9.190;2023-02-11T01:17:35;50.92;;;25.92;;
24631;SDS011;59977;48.782;9.190;2023-02-11T01:20:05;53.63;;;25.23;;
24631;SDS011;59977;48.782;9.190;2023-02-11T01:25:03;52.40;;;25.33;;
24631;SDS011;59977;48.782;9.190;2023-02-11T01:27:30;57.03;;;24.67;;
24631;SDS011;59977;48.782;9.190;2023-02-11T01:29:55;61.13;;;25.67;;
24631;SDS011;59977;48.782;9.190;2023-02-11T01:32:21;55.35;;;25.77;;
24631;SDS011;59977;48.782;9.190;2023-02-11T01:34:46;45.58;;;23.38;;
24631;SDS011;59977;48.782;9.190;2023-02-11T01:37:12;52.67;;;23.98;;
24631;SDS011;59977;48.782;9.190;2023-02-11T01:39:38;46.70;;;24.08;;
24631;SDS011;59977;48.782;9.190;2023-02-11T01:42:03;50.45;;;24.75;;
24631;SDS011;59977;48.782;9.190;2023-02-11T01:44:30;47.08;;;24.88;;
24631;SDS011;59977;48.782;9.190;2023-02-11T01:47:01;51.33;;;24.50;;
24631;SDS011;59977;48.782;9.190;2023-02-11T01:49:30;61.15;;;26.55;;
24631;SDS011;59977;48.782;9.190;2023-02-11T01:54:32;54.95;;;25.75;;
24631;SDS011;59977;48.782;9.190;2023-02-11T01:57:20;55.50;;;26.63;;
24631;SDS011;59977;48.782;9.190;2023-02-11T02:02:33;56.05;;;26.40;;
24631;SDS011;59977;48.782;9.190;2023-02-11T02:07:48;48.45;;;25.40;;
24631;SDS011;59977;48.782;9.190;2023-02-11T02:10:26;51.17;;;26.73;;
24631;SDS011;59977;48.782;9.190;2023-02-11T02:12:53;58.42;;;25.98;;
24631;SDS011;59977;48.782;9.190;2023-02-11T02:15:26;52.42;;;27.02;;
24631;SDS011;59977;48.782;9.190;2023-02-11T02:17:58;55.80;;;26.27;;
24631;SDS011;59977;48.782;9.190;2023-02-11T02:23:17;56.85;;;26.95;;
24631;SDS011;59977;48.782;9.190;2023-02-11T02:26:02;55.25;;;26.60;;
24631;SDS011;59977;48.782;9.190;2023-02-11T02:37:23;54.22;;;26.45;;
24631;SDS011;59977;48.782;9.190;2023-02-11T02:39:56;58.85;;;26.45;;
24631;SDS011;59977;48.782;9.190;2023-02-11T02:42:26;57.20;;;25.85;;
24631;SDS011;59977;48.782;9.190;2023-02-11T02:44:52;61.25;;;26.98;;
24631;SDS011;59977;48.782;9.190;2023-02-11T02:47:20;52.60;;;25.58;;
24631;SDS011;59977;48.782;9.190;2023-02-11T02:49:45;60.90;;;26.80;;
24631;SDS011;59977;48.782;9.190;2023-02-11T02:55:23;54.10;;;26.65;;
24631;SDS011;59977;48.782;9.190;2023-02-11T03:04:01;54.03;;;27.38;;
24631;SDS011;59977;48.782;9.190;2023-02-11T03:10:12;54.38;;;26.98;;
24631;SDS011;59977;48.782;9.190;2023-02-11T03:12:43;59.28;;;26.63;;
24631;SDS011;59977;48.782;9.190;2023-02-11T03:15:11;52.28;;;25.58;;
24631;SDS011;59977;48.782;9.190;2023-02-11T03:17:40;53.60;;;24.63;;
24631;SDS011;59977;48.782;9.190;2023-02-11T03:20:09;51.63;;;24.02;;
24631;SDS011;59977;48.782;9.190;2023-02-11T03:22:41;51.67;;;23.35;;
24631;SDS011;59977;48.782;9.190;2023-02-11T03:25:14;48.58;;;22.92;;
24631;SDS011;59977;48.782;9.190;2023-02-11T03:30:29;45.38;;;22.65;;
24631;SDS011;59977;48.782;9.190;2023-02-11T03:33:26;49.30;;;22.48;;
24631;SDS011;59977;48.782;9.190;2023-02-11T03:36:02;48.15;;;22.00;;
24631;SDS011;59977;48.782;9.190;2023-02-11T03:38:42;51.67;;;23.10;;
24631;SDS011;59977;48.782;9.190;2023-02-11T03:41:11;48.70;;;23.23;;
24631;SDS011;59977;48.782;9.190;2023-02-11T03:43:41;54.20;;;25.50;;
24631;SDS011;59977;48.782;9.190;2023-02-11T03:46:10;50.80;;;24.50;;
24631;SDS011;59977;48.782;9.190;2023-02-11T03:48:38;55.30;;;25.38;;
24631;SDS011;59977;48.782;9.190;2023-02-11T03:51:08;57.87;;;24.43;;
24631;SDS011;59977;48.782;9.190;2023-02-11T03:53:36;58.67;;;24.80;;
24631;SDS011;59977;48.782;9.190;2023-02-11T03:56:05;54.85;;;25.52;;
24631;SDS011;59977;48.782;9.190;2023-02-11T03:58:34;49.70;;;24.05;;
24631;SDS011;59977;48.782;9.190;2023-02-11T04:01:00;50.58;;;23.35;;
24631;SDS011;59977;48.782;9.190;2023-02-11T04:03:26;45.63;;;23.10;;
24631;SDS011;59977;48.782;9.190;2023-02-11T04:05:52;54.22;;;23.92;;
24631;SDS011;59977;48.782;9.190;2023-02-11T04:08:18;52.35;;;25.23;;
24631;SDS011;59977;48.782;9.190;2023-02-11T04:10:44;54.25;;;25.38;;
24631;SDS011;59977;48.782;9.190;2023-02-11T04:13:09;57.25;;;25.77;;
24631;SDS011;59977;48.782;9.190;2023-02-11T04:15:35;48.80;;;25.27;;
24631;SDS011;59977;48.782;9.190;2023-02-11T04:18:01;48.45;;;24.80;;
24631;SDS011;59977;48.782;9.190;2023-02-11T04:20:27;52.85;;;24.70;;
24631;SDS011;59977;48.782;9.190;2023-02-11T04:22:53;51.17;;;25.98;;
24631;SDS011;59977;48.782;9.190;2023-02-11T04:25:19;53.70;;;24.27;;
24631;SDS011;59977;48.782;9.190;2023-02-11T04:27:44;56.67;;;25.55;;
24631;SDS011;59977;48.782;9.190;2023-02-11T04:30:10;51.10;;;24.63;;
24631;SDS011;59977;48.782;9.190;2023-02-11T04:32:36;50.10;;;26.15;;
24631;SDS011;59977;48.782;9.190;2023-02-11T04:35:01;53.63;;;25.55;;
24631;SDS011;59977;48.782;9.190;2023-02-11T04:37:27;48.45;;;24.20;;
24631;SDS011;59977;48.782;9.190;2023-02-11T04:39:53;49.47;;;25.70;;
24631;SDS011;59977;48.782;9.190;2023-02-11T04:42:18;47.58;;;24.67;;
24631;SDS011;59977;48.782;9.190;2023-02-11T04:44:44;49.83;;;25.02;;
24631;SDS011;59977;48.782;9.190;2023-02-11T04:47:09;49.28;;;25.20;;
24631;SDS011;59977;48.782;9.190;2023-02-11T04:49:37;48.13;;;24.17;;
24631;SDS011;59977;48.782;9.190;2023-02-11T04:52:03;51.50;;;25.83;;
24631;SDS011;59977;48.782;9.190;2023-02-11T04:54:29;47.42;;;24.30;;
24631;SDS011;59977;48.782;9.190;2023-02-11T04:56:54;49.22;;;24.27;;
24631;SDS011;59977;48.782;9.190;2023-02-11T04:59:20;53.00;;;24.60;;
24631;SDS011;59977;48.782;9.190;2023-02-11T05:01:45;51.38;;;24.38;;
24631;SDS011;59977;48.782;9.190;2023-02-11T05:04:11;53.00;;;24.52;;
24631;SDS011;59977;48.782;9.190;2023-02-11T05:06:37;47.95;;;24.35;;
24631;SDS011;59977;48.782;9.190;2023-02-11T05:09:03;48.70;;;24.75;;
24631;SDS011;59977;48.782;9.190;2023-02-11T05:11:29;49.85;;;25.45;;
24631;SDS011;59977;48.782;9.190;2023-02-11T05:13:55;53.25;;;24.73;;
24631;SDS011;59977;48.782;9.190;2023-02-11T05:16:20;45.60;;;23.60;;
24631;SDS011;59977;48.782;9.190;2023-02-11T05:18:46;52.40;;;23.80;;
24631;SDS011;59977;48.782;9.190;2023-02-11T05:21:13;53.10;;;24.52;;
24631;SDS011;59977;48.782;9.190;2023-02-11T05:23:41;46.35;;;24.38;;
24631;SDS011;59977;48.782;9.190;2023-02-11T05:26:08;55.05;;;24.10;;
24631;SDS011;59977;48.782;9.190;2023-02-11T05:28:34;53.53;;;24.23;;
24631;SDS011;59977;48.782;9.190;2023-02-11T05:31:00;48.17;;;24.80;;
24631;SDS011;59977;48.782;9.190;2023-02-11T05:33:26;46.90;;;24.05;;
24631;SDS011;59977;48.782;9.190;2023-02-11T05:35:56;47.90;;;24.42;;
24631;SDS011;59977;48.782;9.190;2023-02-11T05:38:26;50.92;;;24.33;;
24631;SDS011;59977;48.782;9.190;2023-02-11T05:40:51;43.13;;;23.33;;
24631;SDS011;59977;48.782;9.190;2023-02-11T05:43:17;43.78;;;23.80;;
24631;SDS011;59977;48.782;9.190;2023-02-11T05:45:43;48.25;;;24.95;;
24631;SDS011;59977;48.782;9.190;2023-02-11T05:48:08;50.20;;;23.80;;
24631;SDS011;59977;48.782;9.190;2023-02-11T05:50:34;48.30;;;24.20;;
24631;SDS011;59977;48.782;9.190;2023-02-11T05:52:59;47.50;;;24.05;;
24631;SDS011;59977;48.782;9.190;2023-02-11T05:55:25;46.28;;;24.35;;
24631;SDS011;59977;48.782;9.190;2023-02-11T05:57:50;48.15;;;24.40;;
24631;SDS011;59977;48.782;9.190;2023-02-11T06:00:16;45.17;;;24.50;;
24631;SDS011;59977;48.782;9.190;2023-02-11T06:02:42;46.05;;;24.88;;
24631;SDS011;59977;48.782;9.190;2023-02-11T06:05:08;47.15;;;24.13;;
24631;SDS011;59977;48.782;9.190;2023-02-11T06:07:33;43.47;;;23.58;;
24631;SDS011;59977;48.782;9.190;2023-02-11T06:09:59;45.78;;;24.33;;
24631;SDS011;59977;48.782;9.190;2023-02-11T06:12:25;52.38;;;24.63;;
24631;SDS011;59977;48.782;9.190;2023-02-11T06:14:51;48.03;;;23.85;;
24631;SDS011;59977;48.782;9.190;2023-02-11T06:17:16;50.13;;;24.98;;
24631;SDS011;59977;48.782;9.190;2023-02-11T06:19:42;45.92;;;23.75;;
24631;SDS011;59977;48.782;9.190;2023-02-11T06:22:08;48.78;;;23.50;;
24631;SDS011;59977;48.782;9.190;2023-02-11T06:24:34;48.38;;;23.83;;
24631;SDS011;59977;48.782;9.190;2023-02-11T06:26:59;45.97;;;23.98;;
24631;SDS011;59977;48.782;9.190;2023-02-11T06:29:25;45.58;;;23.02;;
24631;SDS011;59977;48.782;9.190;2023-02-11T06:31:50;50.67;;;23.63;;
24631;SDS011;59977;48.782;9.190;2023-02-11T06:34:16;49.92;;;24.45;;
24631;SDS011;59977;48.782;9.190;2023-02-11T06:36:41;52.03;;;24.33;;
24631;SDS011;59977;48.782;9.190;2023-02-11T06:39:08;49.50;;;23.38;;
24631;SDS011;59977;48.782;9.190;2023-02-11T06:41:34;47.25;;;24.10;;
24631;SDS011;59977;48.782;9.190;2023-02-11T06:43:59;46.38;;;23.95;;
24631;SDS011;59977;48.782;9.190;2023-02-11T06:46:25;55.33;;;23.77;;
24631;SDS011;59977;48.782;9.190;2023-02-11T06:48:51;43.03;;;21.98;;
24631;SDS011;59977;48.782;9.190;2023-02-11T06:51:16;44.25;;;22.20;;
24631;SDS011;59977;48.782;9.190;2023-02-11T06:53:43;45.10;;;22.95;;
24631;SDS011;59977;48.782;9.190;2023-02-11T06:56:11;50.15;;;21.75;;
24631;SDS011;59977;48.782;9.190;2023-02-11T06:58:42;42.55;;;22.23;;
24631;SDS011;59977;48.782;9.190;2023-02-11T07:01:09;47.95;;;22.90;;
24631;SDS011;59977;48.782;9.190;2023-02-11T07:03:37;42.38;;;23.67;;
24631;SDS011;59977;48.782;9.190;2023-02-11T07:06:04;45.40;;;22.73;;
24631;SDS011;59977;48.782;9.190;2023-02-11T07:08:32;46.30;;;22.30;;
24631;SDS011;59977;48.782;9.190;2023-02-11T07:10:58;44.33;;;22.77;;
24631;SDS011;59977;48.782;9.190;2023-02-11T07:13:24;42.67;;;23.40;;
24631;SDS011;59977;48.782;9.190;2023-02-11T07:15:49;40.47;;;22.30;;
24631;SDS011;59977;48.782;9.190;2023-02-11T07:18:15;43.95;;;23.30;;
24631;SDS011;59977;48.782;9.190;2023-02-11T07:20:41;47.05;;;23.25;;
24631;SDS011;59977;48.782;9.190;2023-02-11T07:23:13;47.70;;;23.23;;
24631;SDS011;59977;48.782;9.190;2023-02-11T07:25:39;49.20;;;24.20;;
24631;SDS011;59977;48.782;9.190;2023-02-11T07:28:04;47.10;;;23.83;;
24631;SDS011;59977;48.782;9.190;2023-02-11T07:30:30;44.83;;;24.15;;
24631;SDS011;59977;48.782;9.190;2023-02-11T07:32:56;43.25;;;23.98;;
24631;SDS011;59977;48.782;9.190;2023-02-11T07:35:21;41.88;;;22.67;;
24631;SDS011;59977;48.782;9.190;2023-02-11T07:37:47;48.53;;;23.25;;
24631;SDS011;59977;48.782;9.190;2023-02-11T07:40:12;50.35;;;23.83;;
24631;SDS011;59977;48.782;9.190;2023-02-11T07:42:38;50.42;;;24.15;;
24631;SDS011;59977;48.782;9.190;2023-02-11T07:45:07;45.60;;;22.85;;
24631;SDS011;59977;48.782;9.190;2023-02-11T07:51:28;42.10;;;22.38;;
24631;SDS011;59977;48.782;9.190;2023-02-11T07:54:32;43.15;;;23.88;;
24631;SDS011;59977;48.782;9.190;2023-02-11T07:56:57;44.03;;;23.20;;
24631;SDS011;59977;48.782;9.190;2023-02-11T07:59:23;44.15;;;23.52;;
24631;SDS011;59977;48.782;9.190;2023-02-11T08:01:49;42.38;;;21.80;;
24631;SDS011;59977;48.782;9.190;2023-02-11T08:04:15;42.05;;;22.48;;
24631;SDS011;59977;48.782;9.190;2023-02-11T08:06:41;42.17;;;20.35;;
24631;SDS011;59977;48.782;9.190;2023-02-11T08:09:08;44.50;;;21.55;;
24631;SDS011;59977;48.782;9.190;2023-02-11T08:11:37;36.72;;;20.17;;
24631;SDS011;59977;48.782;9.190;2023-02-11T08:14:03;42.42;;;18.08;;
24631;SDS011;59977;48.782;9.190;2023-02-11T08:16:31;33.65;;;18.23;;
24631;SDS011;59977;48.782;9.190;2023-02-11T08:18:59;37.58;;;17.58;;
24631;SDS011;59977;48.782;9.190;2023-02-11T08:21:26;34.78;;;17.92;;
24631;SDS011;59977;48.782;9.190;2023-02-11T08:23:53;32.22;;;17.30;;
24631;SDS011;59977;48.782;9.190;2023-02-11T08:26:20;31.38;;;17.15;;
24631;SDS011;59977;48.782;9.190;2023-02-11T08:28:49;37.17;;;17.42;;
24631;SDS011;59977;48.782;9.190;2023-02-11T08:31:17;40.72;;;19.75;;
24631;SDS011;59977;48.782;9.190;2023-02-11T08:33:49;42.97;;;19.95;;
24631;SDS011;59977;48.782;9.190;2023-02-11T08:36:20;37.78;;;19.95;;
24631;SDS011;59977;48.782;9.190;2023-02-11T08:38:47;37.65;;;21.00;;
24631;SDS011;59977;48.782;9.190;2023-02-11T08:41:15;37.78;;;21.38;;
24631;SDS011;59977;48.782;9.190;2023-02-11T08:43:43;49.72;;;23.05;;
24631;SDS011;59977;48.782;9.190;2023-02-11T08:46:11;46.35;;;23.45;;
24631;SDS011;59977;48.782;9.190;2023-02-11T08:48:39;44.83;;;23.40;;
24631;SDS011;59977;48.782;9.190;2023-02-11T08:51:07;45.65;;;23.52;;
24631;SDS011;59977;48.782;9.190;2023-02-11T08:53:35;45.25;;;24.63;;
24631;SDS011;59977;48.782;9.190;2023-02-11T08:56:02;43.72;;;24.23;;
24631;SDS011;59977;48.782;9.190;2023-02-11T08:58:28;48.38;;;24.92;;
24631;SDS011;59977;48.782;9.190;2023-02-11T09:00:54;51.78;;;24.67;;
24631;SDS011;59977;48.782;9.190;2023-02-11T09:03:19;44.85;;;23.30;;
24631;SDS011;59977;48.782;9.190;2023-02-11T09:05:46;49.13;;;24.60;;
24631;SDS011;59977;48.782;9.190;2023-02-11T09:08:20;45.45;;;22.73;;
24631;SDS011;59977;48.782;9.190;2023-02-11T09:10:46;41.67;;;23.30;;
24631;SDS011;59977;48.782;9.190;2023-02-11T09:13:12;44.72;;;22.80;;
24631;SDS011;59977;48.782;9.190;2023-02-11T09:15:38;47.65;;;23.65;;
24631;SDS011;59977;48.782;9.190;2023-02-11T09:18:04;45.75;;;22.67;;
24631;SDS011;59977;48.782;9.190;2023-02-11T09:20:29;43.53;;;22.95;;
24631;SDS011;59977;48.782;9.190;2023-02-11T09:22:56;43.88;;;23.05;;
24631;SDS011;59977;48.782;9.190;2023-02-11T09:25:22;44.35;;;23.55;;
24631;SDS011;59977;48.782;9.190;2023-02-11T09:27:48;45.30;;;24.05;;
24631;SDS011;59977;48.782;9.190;2023-02-11T09:30:15;47.72;;;22.63;;
24631;SDS011;59977;48.782;9.190;2023-02-11T09:32:41;43.47;;;22.00;;
24631;SDS011;59977;48.782;9.190;2023-02-11T09:35:07;46.55;;;21.98;;
24631;SDS011;59977;48.782;9.190;2023-02-11T09:37:32;47.80;;;23.20;;
24631;SDS011;59977;48.782;9.190;2023-02-11T09:39:58;44.85;;;23.90;;
24631;SDS011;59977;48.782;9.190;2023-02-11T09:45:02;44.67;;;22.65;;
24631;SDS011;59977;48.782;9.190;2023-02-11T09:47:31;37.45;;;21.83;;
24631;SDS011;59977;48.782;9.190;2023-02-11T09:50:10;39.10;;;20.60;;
24631;SDS011;59977;48.782;9.190;2023-02-11T09:52:41;43.90;;;21.35;;
24631;SDS011;59977;48.782;9.190;2023-02-11T09:55:32;38.33;;;21.80;;
24631;SDS011;59977;48.782;9.190;2023-02-11T09:58:13;48.75;;;21.30;;
24631;SDS011;59977;48.782;9.190;2023-02-11T10:00:50;50.00;;;23.92;;
24631;SDS011;59977;48.782;9.190;2023-02-11T10:03:36;36.20;;;21.17;;
24631;SDS011;59977;48.782;9.190;2023-02-11T10:08:52;43.60;;;22.95;;
24631;SDS011;59977;48.782;9.190;2023-02-11T10:11:55;44.17;;;22.33;;
24631;SDS011;59977;48.782;9.190;2023-02-11T10:20:17;43.20;;;21.80;;
24631;SDS011;59977;48.782;9.190;2023-02-11T10:22:58;38.20;;;21.23;;
24631;SDS011;59977;48.782;9.190;2023-02-11T10:28:00;39.05;;;21.40;;
24631;SDS011;59977;48.782;9.190;2023-02-11T10:30:49;39.95;;;21.65;;
24631;SDS011;59977;48.782;9.190;2023-02-11T10:36:20;40.92;;;21.83;;
24631;SDS011;59977;48.782;9.190;2023-02-11T10:38:53;42.97;;;23.80;;
24631;SDS011;59977;48.782;9.190;2023-02-11T10:41:20;41.90;;;22.00;;
24631;SDS011;59977;48.782;9.190;2023-02-11T10:43:50;46.70;;;23.98;;
24631;SDS011;59977;48.782;9.190;2023-02-11T10:46:21;38.25;;;21.88;;
24631;SDS011;59977;48.782;9.190;2023-02-11T12:30:03;19.98;;;8.63;;
24631;SDS011;59977;48.782;9.190;2023-02-11T12:36:17;18.80;;;9.20;;
24631;SDS011;59977;48.782;9.190;2023-02-11T12:39:00;13.27;;;8.13;;
24631;SDS011;59977;48.782;9.190;2023-02-11T12:41:42;14.18;;;9.30;;
24631;SDS011;59977;48.782;9.190;2023-02-11T12:44:32;15.73;;;8.13;;
24631;SDS011;59977;48.782;9.190;2023-02-11T12:53:24;17.45;;;7.68;;
24631;SDS011;59977;48.782;9.190;2023-02-11T12:55:55;12.02;;;7.53;;
24631;SDS011;59977;48.782;9.190;2023-02-11T12:58:25;9.40;;;6.43;;
24631;SDS011;59977;48.782;9.190;2023-02-11T13:00:57;11.70;;;7.55;;
24631;SDS011;59977;48.782;9.190;2023-02-11T13:03:38;13.43;;;6.90;;
24631;SDS011;59977;48.782;9.190;2023-02-11T13:06:14;11.75;;;6.78;;
24631;SDS011;59977;48.782;9.190;2023-02-11T13:08:46;11.63;;;6.30;;
24631;SDS011;59977;48.782;9.190;2023-02-11T13:11:28;12.65;;;6.75;;
24631;SDS011;59977;48.782;9.190;2023-02-11T13:14:46;12.25;;;6.40;;
24631;SDS011;59977;48.782;9.190;2023-02-11T13:20:14;11.93;;;7.13;;
24631;SDS011;59977;48.782;9.190;2023-02-11T13:22:57;12.80;;;7.18;;
24631;SDS011;59977;48.782;9.190;2023-02-11T13:25:51;13.80;;;7.15;;
24631;SDS011;59977;48.782;9.190;2023-02-11T13:28:35;13.07;;;6.97;;
24631;SDS011;59977;48.782;9.190;2023-02-11T13:31:21;15.38;;;8.13;;
24631;SDS011;59977;48.782;9.190;2023-02-11T13:33:50;16.05;;;10.00;;
24631;SDS011;59977;48.782;9.190;2023-02-11T13:39:25;19.60;;;11.60;;
24631;SDS011;59977;48.782;9.190;2023-02-11T13:41:52;19.35;;;10.38;;
24631;SDS011;59977;48.782;9.190;2023-02-11T13:44:27;22.50;;;12.07;;
24631;SDS011;59977;48.782;9.190;2023-02-11T13:46:57;25.88;;;12.95;;
24631;SDS011;59977;48.782;9.190;2023-02-11T13:49:35;24.13;;;12.40;;
24631;SDS011;59977;48.782;9.190;2023-02-11T13:52:17;23.35;;;12.75;;
24631;SDS011;59977;48.782;9.190;2023-02-11T13:54:53;22.20;;;12.55;;
24631;SDS011;59977;48.782;9.190;2023-02-11T13:57:26;25.70;;;12.90;;
24631;SDS011;59977;48.782;9.190;2023-02-11T13:59:57;24.15;;;13.55;;
24631;SDS011;59977;48.782;9.190;2023-02-11T14:02:29;23.13;;;13.10;;
24631;SDS011;59977;48.782;9.190;2023-02-11T14:11:05;21.92;;;13.68;;
24631;SDS011;59977;48.782;9.190;2023-02-11T14:14:22;21.08;;;13.15;;
24631;SDS011;59977;48.782;9.190;2023-02-11T14:16:26;22.73;;;12.85;;
24631;SDS011;59977;48.782;9.190;2023-02-11T14:29:24;25.02;;;12.75;;
24631;SDS011;59977;48.782;9.190;2023-02-11T14:34:45;20.63;;;13.20;;
24631;SDS011;59977;48.782;9.190;2023-02-11T14:42:53;19.20;;;12.50;;
24631;SDS011;59977;48.782;9.190;2023-02-11T14:45:25;20.63;;;11.57;;
24631;SDS011;59977;48.782;9.190;2023-02-11T14:53:04;19.02;;;11.35;;
24631;SDS011;59977;48.782;9.190;2023-02-11T14:55:32;19.40;;;11.18;;
24631;SDS011;59977;48.782;9.190;2023-02-11T14:58:07;16.45;;;10.55;;
24631;SDS011;59977;48.782;9.190;2023-02-11T15:00:51;18.73;;;10.07;;
24631;SDS011;59977;48.782;9.190;2023-02-11T15:03:41;17.75;;;10.48;;
24631;SDS011;59977;48.782;9.190;2023-02-11T15:08:42;19.30;;;10.55;;
24631;SDS011;59977;48.782;9.190;2023-02-11T15:11:12;20.77;;;10.30;;
24631;SDS011;59977;48.782;9.190;2023-02-11T15:13:40;20.55;;;10.93;;
24631;SDS011;59977;48.782;9.190;2023-02-11T15:16:22;19.73;;;11.63;;
24631;SDS011;59977;48.782;9.190;2023-02-11T15:18:59;21.60;;;12.70;;
24631;SDS011;59977;48.782;9.190;2023-02-11T15:21:29;21.92;;;13.60;;
24631;SDS011;59977;48.782;9.190;2023-02-11T15:23:58;17.75;;;12.60;;
24631;SDS011;59977;48.782;9.190;2023-02-11T15:26:26;22.08;;;13.23;;
24631;SDS011;59977;48.782;9.190;2023-02-11T15:28:52;22.33;;;13.18;;
24631;SDS011;59977;48.782;9.190;2023-02-11T15:31:19;21.92;;;13.13;;
24631;SDS011;59977;48.782;9.190;2023-02-11T15:33:50;19.38;;;11.70;;
24631;SDS011;59977;48.782;9.190;2023-02-11T15:36:17;19.08;;;12.00;;
24631;SDS011;59977;48.782;9.190;2023-02-11T15:38:44;19.50;;;12.27;;
24631;SDS011;59977;48.782;9.190;2023-02-11T15:44:28;22.45;;;12.80;;
24631;SDS011;59977;48.782;9.190;2023-02-11T15:46:55;20.80;;;12.82;;
24631;SDS011;59977;48.782;9.190;2023-02-11T15:49:21;22.45;;;11.95;;
24631;SDS011;59977;48.782;9.190;2023-02-11T15:51:48;18.08;;;12.93;;
24631;SDS011;59977;48.782;9.190;2023-02-11T15:54:17;20.83;;;12.75;;
24631;SDS011;59977;48.782;9.190;2023-02-11T15:56:46;20.25;;;13.63;;
24631;SDS011;59977;48.782;9.190;2023-02-11T15:59:16;18.90;;;13.52;;
24631;SDS011;59977;48.782;9.190;2023-02-11T16:01:54;25.58;;;14.88;;
24631;SDS011;59977;48.782;9.190;2023-02-11T16:04:23;23.65;;;14.60;;
24631;SDS011;59977;48.782;9.190;2023-02-11T16:06:51;23.52;;;14.35;;
24631;SDS011;59977;48.782;9.190;2023-02-11T16:16:44;27.77;;;15.48;;
24631;SDS011;59977;48.782;9.190;2023-02-11T16:19:15;24.13;;;15.13;;
24631;SDS011;59977;48.782;9.190;2023-02-11T16:21:43;28.38;;;15.45;;
24631;SDS011;59977;48.782;9.190;2023-02-11T16:26:56;27.00;;;15.95;;
24631;SDS011;59977;48.782;9.190;2023-02-11T16:29:28;27.33;;;16.42;;
24631;SDS011;59977;48.782;9.190;2023-02-11T16:34:41;25.33;;;15.48;;
24631;SDS011;59977;48.782;9.190;2023-02-11T16:37:06;31.92;;;15.95;;
24631;SDS011;59977;48.782;9.190;2023-02-11T16:39:32;25.00;;;16.23;;
24631;SDS011;59977;48.782;9.190;2023-02-11T16:41:58;27.23;;;16.08;;
24631;SDS011;59977;48.782;9.190;2023-02-11T16:44:25;35.70;;;17.27;;
24631;SDS011;59977;48.782;9.190;2023-02-11T16:46:51;30.48;;;15.77;;
24631;SDS011;59977;48.782;9.190;2023-02-11T16:49:27;25.73;;;15.73;;
24631;SDS011;59977;48.782;9.190;2023-02-11T16:51:57;27.67;;;16.58;;
24631;SDS011;59977;48.782;9.190;2023-02-11T16:54:27;29.05;;;16.52;;
24631;SDS011;59977;48.782;9.190;2023-02-11T17:11:23;25.93;;;13.57;;
24631;SDS011;59977;48.782;9.190;2023-02-11T17:13:49;37.38;;;17.98;;
24631;SDS011;59977;48.782;9.190;2023-02-11T17:16:18;29.48;;;17.02;;
24631;SDS011;59977;48.782;9.190;2023-02-11T17:18:46;30.08;;;17.52;;
24631;SDS011;59977;48.782;9.190;2023-02-11T17:21:12;28.98;;;17.55;;
24631;SDS011;59977;48.782;9.190;2023-02-11T17:23:38;32.28;;;18.23;;
24631;SDS011;59977;48.782;9.190;2023-02-11T17:26:04;30.58;;;17.98;;
24631;SDS011;59977;48.782;9.190;2023-02-11T17:28:30;46.20;;;25.02;;
24631;SDS011;59977;48.782;9.190;2023-02-11T17:30:56;33.90;;;19.48;;
24631;SDS011;59977;48.782;9.190;2023-02-11T17:33:24;35.53;;;20.45;;
24631;SDS011;59977;48.782;9.190;2023-02-11T17:35:50;40.17;;;22.42;;
24631;SDS011;59977;48.782;9.190;2023-02-11T17:38:15;38.20;;;21.55;;
24631;SDS011;59977;48.782;9.190;2023-02-11T17:40:41;32.03;;;17.83;;
24631;SDS011;59977;48.782;9.190;2023-02-11T17:43:09;37.78;;;18.77;;
24631;SDS011;59977;48.782;9.190;2023-02-11T17:45:39;28.58;;;17.58;;
24631;SDS011;59977;48.782;9.190;2023-02-11T17:48:05;27.48;;;17.42;;
24631;SDS011;59977;48.782;9.190;2023-02-11T17:50:33;32.67;;;18.55;;
24631;SDS011;59977;48.782;9.190;2023-02-11T17:53:00;28.17;;;18.25;;
24631;SDS011;59977;48.782;9.190;2023-02-11T17:55:26;28.20;;;17.20;;
24631;SDS011;59977;48.782;9.190;2023-02-11T17:57:51;30.77;;;18.40;;
24631;SDS011;59977;48.782;9.190;2023-02-11T18:00:17;32.38;;;17.48;;
24631;SDS011;59977;48.782;9.190;2023-02-11T18:02:43;33.30;;;18.85;;
24631;SDS011;59977;48.782;9.190;2023-02-11T18:05:08;34.55;;;18.20;;
24631;SDS011;59977;48.782;9.190;2023-02-11T18:07:34;32.45;;;18.25;;
24631;SDS011;59977;48.782;9.190;2023-02-11T18:10:00;33.83;;;18.27;;
24631;SDS011;59977;48.782;9.190;2023-02-11T18:12:25;29.05;;;18.15;;
24631;SDS011;59977;48.782;9.190;2023-02-11T18:14:51;35.72;;;17.77;;
24631;SDS011;59977;48.782;9.190;2023-02-11T18:17:19;33.03;;;19.48;;
24631;SDS011;59977;48.782;9.190;2023-02-11T18:19:45;36.40;;;18.80;;
24631;SDS011;59977;48.782;9.190;2023-02-11T18:22:11;34.15;;;19.20;;
24631;SDS011;59977;48.782;9.190;2023-02-11T18:24:38;29.35;;;18.27;;
24631;SDS011;59977;48.782;9.190;2023-02-11T18:27:04;31.50;;;19.15;;
24631;SDS011;59977;48.782;9.190;2023-02-11T18:29:29;36.28;;;19.05;;
24631;SDS011;59977;48.782;9.190;2023-02-11T18:31:55;32.40;;;19.95;;
24631;SDS011;59977;48.782;9.190;2023-02-11T18:34:22;35.00;;;18.73;;
24631;SDS011;59977;48.782;9.190;2023-02-11T18:36:48;31.05;;;19.20;;